createdAt,value
2019-05-30T00:02:10.282Z,2
2019-05-30T00:07:12.685Z,2
2019-05-30T00:12:15.146Z,2
2019-05-30T00:17:17.558Z,2
2019-05-30T00:22:20.034Z,1
2019-05-30T00:27:22.435Z,2
2019-05-30T00:32:24.978Z,1
2019-05-30T00:37:27.353Z,2
2019-05-30T00:42:29.748Z,2
2019-05-30T00:47:32.211Z,1
2019-05-30T00:52:34.643Z,1
2019-05-30T00:57:37.148Z,2
2019-05-30T01:02:39.609Z,2
2019-05-30T01:07:41.972Z,1
2019-05-30T01:12:44.412Z,1
2019-05-30T01:17:46.928Z,1
2019-05-30T01:22:49.311Z,1
2019-05-30T01:27:51.717Z,1
2019-05-30T01:32:54.161Z,1
2019-05-30T01:37:57.552Z,1
2019-05-30T01:42:59.904Z,1
2019-05-30T01:48:02.873Z,1
2019-05-30T01:53:04.612Z,1
2019-05-30T01:58:07.209Z,1
2019-05-30T02:03:09.470Z,1
2019-05-30T02:08:11.287Z,1
2019-05-30T02:13:13.735Z,2
2019-05-30T02:18:16.195Z,1
2019-05-30T02:23:18.618Z,1
2019-05-30T02:28:21.042Z,1
2019-05-30T02:33:23.461Z,1
2019-05-30T02:38:25.899Z,1
2019-05-30T02:43:28.342Z,1
2019-05-30T02:48:30.766Z,1
2019-05-30T02:53:33.210Z,1
2019-05-30T02:58:35.666Z,1
2019-05-30T03:03:38.073Z,1
2019-05-30T03:08:40.576Z,1
2019-05-30T03:13:42.954Z,1
2019-05-30T03:18:45.461Z,1
2019-05-30T03:23:47.826Z,1
2019-05-30T03:28:53.316Z,1
2019-05-30T03:33:52.755Z,1
2019-05-30T03:38:55.173Z,1
2019-05-30T03:43:57.615Z,1
2019-05-30T03:49:00.078Z,1
2019-05-30T03:54:04.771Z,1
2019-05-30T03:59:05.752Z,1
2019-05-30T04:09:11.801Z,2
2019-05-30T04:19:15.591Z,2
2019-05-30T04:24:17.208Z,1
2019-05-30T04:29:19.554Z,1
2019-05-30T04:34:22.034Z,2
2019-05-30T04:39:24.465Z,2
2019-05-30T04:44:26.974Z,1
2019-05-30T04:49:29.366Z,2
2019-05-30T04:54:31.758Z,1
2019-05-30T04:59:34.197Z,1
2019-05-30T05:04:36.632Z,1
2019-05-30T05:09:39.072Z,1
2019-05-30T05:14:41.528Z,1
2019-05-30T05:19:44.415Z,1
2019-05-30T05:24:46.394Z,2
2019-05-30T05:29:48.833Z,1
2019-05-30T05:34:52.185Z,1
2019-05-30T05:39:53.764Z,2
2019-05-30T05:44:56.182Z,2
2019-05-30T05:49:58.594Z,2
2019-05-30T05:55:01.210Z,2
2019-05-30T06:00:03.528Z,2
2019-05-30T06:05:05.983Z,2
2019-05-30T06:10:08.392Z,2
2019-05-30T06:15:10.938Z,2
2019-05-30T06:25:15.699Z,2
2019-05-30T06:30:18.278Z,2
2019-05-30T06:35:21.366Z,2
2019-05-30T06:40:23.701Z,2
2019-05-30T06:45:26.691Z,2
2019-05-30T06:50:29.029Z,1
2019-05-30T06:55:31.396Z,1
2019-05-30T07:00:32.976Z,1
2019-05-30T07:05:35.881Z,1
2019-05-30T07:10:37.651Z,1
2019-05-30T07:15:40.075Z,1
2019-05-30T07:20:42.562Z,1
2019-05-30T07:25:44.980Z,1
2019-05-30T07:30:47.402Z,1
2019-05-30T07:35:49.865Z,1
2019-05-30T07:40:52.361Z,1
2019-05-30T07:45:58.101Z,1
2019-05-30T07:50:57.535Z,1
2019-05-30T07:55:59.660Z,1
2019-05-30T08:01:02.086Z,1
2019-05-30T08:06:04.545Z,1
2019-05-30T08:11:09.713Z,1
2019-05-30T08:16:09.372Z,1
2019-05-30T08:21:11.834Z,1
2019-05-30T08:26:14.451Z,1
2019-05-30T08:31:16.676Z,1
2019-05-30T08:36:19.125Z,1
2019-05-30T08:41:21.586Z,1
2019-05-30T08:46:23.994Z,1
2019-05-30T08:51:26.503Z,0
2019-05-30T08:56:30.184Z,1
2019-05-30T09:01:31.449Z,1
2019-05-30T09:06:33.770Z,1
2019-05-30T09:11:37.607Z,1
2019-05-30T09:16:38.647Z,1
2019-05-30T09:21:41.401Z,1
2019-05-30T09:26:46.738Z,1
2019-05-30T09:31:46.660Z,0
2019-05-30T09:36:49.086Z,1
2019-05-30T09:41:51.015Z,1
2019-05-30T09:46:53.330Z,1
2019-05-30T09:51:55.759Z,1
2019-05-30T09:56:58.164Z,1
2019-05-30T10:02:00.799Z,1
2019-05-30T10:07:03.098Z,0
2019-05-30T10:12:05.543Z,1
2019-05-30T10:17:07.975Z,1
2019-05-30T10:22:10.398Z,0
2019-05-30T10:27:12.907Z,2
2019-05-30T10:32:15.431Z,1
2019-05-30T10:37:17.692Z,1
2019-05-30T10:42:20.143Z,1
2019-05-30T10:47:22.680Z,1
2019-05-30T10:52:25.029Z,1
2019-05-30T10:57:27.521Z,1
2019-05-30T11:02:29.903Z,1
2019-05-30T11:07:32.353Z,1
2019-05-30T11:12:34.820Z,1
2019-05-30T11:17:37.286Z,1
2019-05-30T11:22:39.667Z,1
2019-05-30T11:27:42.116Z,1
2019-05-30T11:32:44.540Z,1
2019-05-30T11:37:47.021Z,1
2019-05-30T11:42:49.606Z,1
2019-05-30T11:47:51.860Z,1
2019-05-30T11:57:56.753Z,1
2019-05-30T12:08:01.672Z,1
2019-05-30T12:13:04.102Z,1
2019-05-30T12:18:06.663Z,1
2019-05-30T12:23:08.938Z,1
2019-05-30T12:28:11.403Z,1
2019-05-30T12:33:13.849Z,1
2019-05-30T12:38:16.280Z,1
2019-05-30T12:43:18.710Z,1
2019-05-30T12:48:21.241Z,1
2019-05-30T12:53:23.602Z,1
2019-05-30T12:58:26.040Z,1
2019-05-30T13:03:28.615Z,1
2019-05-30T13:08:30.925Z,1
2019-05-30T13:13:33.402Z,1
2019-05-30T13:18:35.831Z,1
2019-05-30T13:23:38.232Z,1
2019-05-30T13:28:40.711Z,1
2019-05-30T13:33:43.125Z,1
2019-05-30T13:38:45.573Z,1
2019-05-30T13:43:48.071Z,1
2019-05-30T13:48:50.464Z,1
2019-05-30T13:53:52.898Z,1
2019-05-30T13:58:55.392Z,1
2019-05-30T14:03:57.792Z,1
2019-05-30T14:09:00.370Z,1
2019-05-30T14:14:02.803Z,1
2019-05-30T14:19:05.306Z,1
2019-05-30T14:24:07.567Z,1
2019-05-30T14:29:10.117Z,1
2019-05-30T14:34:12.481Z,1
2019-05-30T14:39:14.892Z,1
2019-05-30T14:44:17.321Z,1
2019-05-30T14:49:19.754Z,1
2019-05-30T14:54:22.235Z,1
2019-05-30T14:59:24.665Z,1
2019-05-30T15:04:27.073Z,1
2019-05-30T15:09:29.521Z,1
2019-05-30T15:14:31.988Z,1
2019-05-30T15:19:34.411Z,1
2019-05-30T15:24:36.869Z,1
2019-05-30T15:29:39.331Z,1
2019-05-30T15:34:41.726Z,1
2019-05-30T15:39:44.469Z,1
2019-05-30T15:44:46.677Z,1
2019-05-30T15:49:52.100Z,1
2019-05-30T15:54:51.549Z,1
2019-05-30T15:59:53.963Z,1
2019-05-30T16:04:56.424Z,1
2019-05-30T16:09:58.857Z,1
2019-05-30T16:15:01.299Z,1
2019-05-30T16:20:03.740Z,1
2019-05-30T16:25:06.626Z,1
2019-05-30T16:30:09.043Z,1
2019-05-30T16:35:11.049Z,1
2019-05-30T16:40:14.454Z,1
2019-05-30T16:45:19.396Z,1
2019-05-30T16:50:19.025Z,1
2019-05-30T16:55:21.357Z,1
2019-05-30T17:00:23.247Z,1
2019-05-30T17:05:25.714Z,1
2019-05-30T17:10:32.498Z,1
2019-05-30T17:15:30.563Z,1
2019-05-30T17:20:33.013Z,1
2019-05-30T17:25:35.474Z,1
2019-05-30T17:30:37.893Z,1
2019-05-30T17:35:40.323Z,1
2019-05-30T17:40:45.094Z,1
2019-05-30T17:45:45.218Z,1
2019-05-30T17:50:47.654Z,1
2019-05-30T17:55:50.262Z,1
2019-05-30T18:00:52.551Z,1
2019-05-30T18:05:55.055Z,1
2019-05-30T18:10:57.428Z,1
2019-05-30T18:16:00.133Z,1
2019-05-30T18:21:02.315Z,1
2019-05-30T18:26:04.743Z,1
2019-05-30T18:31:07.235Z,1
2019-05-30T18:36:09.654Z,1
2019-05-30T18:41:15.742Z,1
2019-05-30T18:46:14.554Z,1
2019-05-30T18:51:17.035Z,2
2019-05-30T18:56:19.377Z,2
2019-05-30T19:01:21.849Z,3
2019-05-30T19:06:25.536Z,3
2019-05-30T19:11:30.735Z,6
2019-05-30T19:16:30.765Z,5
2019-05-30T19:21:32.132Z,11
2019-05-30T19:26:34.687Z,10
2019-05-30T19:36:38.926Z,5
2019-05-30T19:41:53.980Z,4
2019-05-30T19:46:44.025Z,3
2019-05-30T19:51:46.237Z,2
2019-05-30T19:56:48.668Z,2
2019-05-30T20:01:51.195Z,2
2019-05-30T20:06:53.535Z,1
2019-05-30T20:12:03.015Z,2
2019-05-30T20:16:58.426Z,2
2019-05-30T20:22:00.852Z,2
2019-05-30T20:27:03.320Z,2
2019-05-30T20:32:05.893Z,2
2019-05-30T20:37:08.250Z,2
2019-05-30T20:42:19.040Z,3
2019-05-30T20:47:13.095Z,3
2019-05-30T20:52:15.542Z,8
2019-05-30T20:57:17.942Z,3
2019-05-30T21:02:20.401Z,3
2019-05-30T21:07:22.990Z,2
2019-05-30T21:12:36.714Z,2
2019-05-30T21:17:27.725Z,3
2019-05-30T21:22:30.165Z,3
2019-05-30T21:27:32.604Z,3
2019-05-30T21:32:35.105Z,2
2019-05-30T21:37:37.746Z,2
2019-05-30T21:42:55.268Z,2
2019-05-30T21:47:42.758Z,3
2019-05-30T21:52:46.237Z,3
2019-05-30T21:57:48.112Z,3
2019-05-30T22:02:50.751Z,3
2019-05-30T22:07:52.195Z,3
2019-05-30T22:13:07.085Z,3
2019-05-30T22:17:57.014Z,3
2019-05-30T22:22:59.448Z,3
2019-05-30T22:28:01.877Z,3
2019-05-30T22:33:04.390Z,3
2019-05-30T22:38:06.786Z,3
2019-05-30T22:43:22.566Z,4
2019-05-30T22:48:11.733Z,4
2019-05-30T22:53:14.144Z,3
2019-05-30T22:58:16.520Z,4
2019-05-30T23:03:18.969Z,4
2019-05-30T23:08:21.432Z,4
2019-05-30T23:13:23.874Z,3
2019-05-30T23:18:26.349Z,3
2019-05-30T23:23:28.735Z,3
2019-05-30T23:28:31.178Z,4
2019-05-30T23:33:33.643Z,3
2019-05-30T23:38:36.146Z,3
2019-05-30T23:43:38.535Z,3
2019-05-30T23:48:40.987Z,3
2019-05-30T23:53:43.386Z,4
2019-05-30T23:58:45.835Z,4
